createdAt,value
2018-08-09T00:00:19.398Z,11.37
2018-08-09T00:02:49.820Z,10.13
2018-08-09T00:05:19.611Z,9.10
2018-08-09T00:07:49.451Z,9.87
2018-08-09T00:10:19.306Z,11.47
2018-08-09T00:12:49.168Z,13.67
2018-08-09T00:15:18.920Z,10.00
2018-08-09T00:17:48.500Z,9.90
2018-08-09T00:20:18.258Z,10.50
2018-08-09T00:22:47.766Z,9.50
2018-08-09T00:25:17.679Z,9.50
2018-08-09T00:27:47.112Z,9.80
2018-08-09T00:30:16.908Z,11.10
2018-08-09T00:32:46.737Z,9.70
2018-08-09T00:35:16.698Z,9.33
2018-08-09T00:37:46.704Z,9.03
2018-08-09T00:40:16.301Z,8.97
2018-08-09T00:42:46.424Z,10.17
2018-08-09T00:45:16.035Z,11.23
2018-08-09T00:47:45.618Z,10.27
2018-08-09T00:50:15.476Z,13.57
2018-08-09T00:52:45.409Z,10.60
2018-08-09T00:55:15.261Z,12.50
2018-08-09T00:57:45.174Z,12.07
2018-08-09T01:00:15.415Z,10.67
2018-08-09T01:02:45.373Z,10.47
2018-08-09T01:05:15.217Z,10.97
2018-08-09T01:07:45.283Z,9.87
2018-08-09T01:10:15.025Z,10.50
2018-08-09T01:12:44.867Z,12.67
2018-08-09T01:15:14.532Z,11.00
2018-08-09T01:17:43.767Z,10.63
2018-08-09T01:20:13.337Z,12.20
2018-08-09T01:22:43.485Z,12.00
2018-08-09T01:25:13.201Z,13.57
2018-08-09T01:27:43.129Z,12.60
2018-08-09T01:30:12.859Z,12.47
2018-08-09T01:32:42.825Z,11.90
2018-08-09T01:35:13.085Z,11.90
2018-08-09T01:37:43.097Z,11.07
2018-08-09T01:40:12.779Z,11.07
2018-08-09T01:42:53.748Z,14.00
2018-08-09T01:45:23.812Z,12.03
2018-08-09T01:47:53.461Z,12.90
2018-08-09T01:50:23.037Z,12.27
2018-08-09T01:52:53.257Z,12.63
2018-08-09T01:55:22.851Z,13.27
2018-08-09T01:57:52.516Z,13.63
2018-08-09T02:00:22.287Z,11.83
2018-08-09T02:02:51.753Z,13.83
2018-08-09T02:05:21.590Z,11.70
2018-08-09T02:07:51.821Z,12.00
2018-08-09T02:10:22.152Z,11.20
2018-08-09T02:12:51.896Z,12.23
2018-08-09T02:15:21.960Z,12.00
2018-08-09T02:17:51.879Z,12.37
2018-08-09T02:20:21.595Z,10.40
2018-08-09T02:22:51.377Z,11.10
2018-08-09T02:25:21.002Z,11.80
2018-08-09T02:27:50.501Z,11.43
2018-08-09T02:30:20.199Z,12.03
2018-08-09T02:32:49.955Z,12.13
2018-08-09T02:35:19.715Z,12.27
2018-08-09T02:37:49.064Z,12.67
2018-08-09T02:40:18.869Z,10.90
2018-08-09T02:42:48.608Z,11.43
2018-08-09T02:45:18.917Z,12.63
2018-08-09T02:47:49.170Z,11.67
2018-08-09T02:50:19.126Z,12.40
2018-08-09T02:52:49.018Z,12.33
2018-08-09T02:55:19.037Z,10.90
2018-08-09T02:57:48.815Z,10.73
2018-08-09T03:00:18.444Z,10.80
2018-08-09T03:02:48.358Z,12.30
2018-08-09T03:05:18.073Z,12.07
2018-08-09T03:07:47.350Z,13.93
2018-08-09T03:10:16.792Z,13.27
2018-08-09T03:12:46.475Z,15.43
2018-08-09T03:15:16.131Z,12.70
2018-08-09T03:17:45.590Z,14.90
2018-08-09T03:20:15.150Z,12.80
2018-08-09T03:22:44.573Z,13.17
2018-08-09T03:25:13.841Z,12.40
2018-08-09T03:27:42.929Z,14.17
2018-08-09T03:30:12.028Z,12.40
2018-08-09T03:32:41.319Z,14.07
2018-08-09T03:35:10.556Z,13.23
2018-08-09T03:37:39.803Z,12.93
2018-08-09T03:40:09.347Z,13.53
2018-08-09T03:42:38.446Z,13.23
2018-08-09T03:45:07.888Z,13.07
2018-08-09T03:47:37.289Z,13.37
2018-08-09T03:50:06.911Z,12.77
2018-08-09T03:52:36.305Z,16.43
2018-08-09T03:55:06.100Z,11.83
2018-08-09T03:57:35.757Z,13.40
2018-08-09T04:00:06.925Z,16.80
2018-08-09T04:02:37.924Z,15.30
2018-08-09T04:05:08.757Z,11.97
2018-08-09T04:07:38.975Z,12.70
2018-08-09T04:10:09.919Z,12.77
2018-08-09T04:12:39.943Z,14.70
2018-08-09T04:15:11.316Z,14.37
2018-08-09T04:17:41.647Z,12.67
2018-08-09T04:20:12.012Z,15.13
2018-08-09T04:22:42.012Z,17.93
2018-08-09T04:25:11.703Z,18.93
2018-08-09T04:27:41.538Z,17.27
2018-08-09T04:30:11.993Z,16.47
2018-08-09T04:32:42.115Z,13.30
2018-08-09T04:35:11.743Z,15.77
2018-08-09T04:37:41.657Z,13.43
2018-08-09T04:40:11.707Z,15.73
2018-08-09T04:42:42.693Z,15.80
2018-08-09T04:45:13.851Z,13.40
2018-08-09T04:47:44.427Z,14.47
2018-08-09T04:50:15.049Z,15.47
2018-08-09T04:52:44.915Z,18.97
2018-08-09T04:55:15.012Z,18.40
2018-08-09T04:57:46.275Z,15.77
2018-08-09T05:00:18.007Z,20.97
2018-08-09T05:02:48.473Z,24.80
2018-08-09T05:05:18.977Z,24.13
2018-08-09T05:07:50.523Z,19.60
2018-08-09T05:10:21.366Z,21.30
2018-08-09T05:12:53.304Z,22.87
2018-08-09T05:15:23.871Z,24.00
2018-08-09T05:17:54.620Z,19.53
2018-08-09T05:20:25.078Z,19.20
2018-08-09T05:22:55.233Z,19.93
2018-08-09T05:25:26.268Z,20.70
2018-08-09T05:28:00.810Z,20.70
2018-08-09T05:30:31.398Z,21.37
2018-08-09T05:33:01.364Z,21.73
2018-08-09T05:35:33.108Z,22.40
2018-08-09T05:38:03.708Z,19.83
2018-08-09T05:40:35.584Z,20.43
2018-08-09T05:43:06.248Z,20.87
2018-08-09T05:45:37.308Z,25.37
2018-08-09T05:48:07.592Z,23.67
2018-08-09T05:50:37.496Z,23.70
2018-08-09T05:53:08.071Z,20.77
2018-08-09T05:55:38.478Z,20.80
2018-08-09T05:58:09.048Z,22.03
2018-08-09T06:00:39.674Z,18.00
2018-08-09T06:03:09.974Z,21.57
2018-08-09T06:05:40.302Z,22.97
2018-08-09T06:08:10.968Z,22.30
2018-08-09T06:10:41.430Z,22.50
2018-08-09T06:13:11.988Z,20.93
2018-08-09T06:15:41.562Z,21.80
2018-08-09T06:18:13.849Z,21.53
2018-08-09T06:20:44.351Z,20.90
2018-08-09T06:23:15.598Z,20.47
2018-08-09T06:25:46.444Z,22.00
2018-08-09T06:28:17.044Z,20.07
2018-08-09T06:30:46.754Z,20.93
2018-08-09T06:33:16.650Z,20.17
2018-08-09T06:35:47.975Z,20.77
2018-08-09T06:38:18.628Z,22.90
2018-08-09T06:40:49.001Z,18.87
2018-08-09T06:43:19.133Z,20.03
2018-08-09T06:45:48.908Z,21.20
2018-08-09T06:48:19.431Z,21.10
2018-08-09T06:50:49.259Z,25.57
2018-08-09T06:53:18.974Z,19.57
2018-08-09T06:55:49.081Z,19.13
2018-08-09T06:58:19.043Z,22.57
2018-08-09T07:00:49.313Z,20.93
2018-08-09T07:03:19.143Z,20.50
2018-08-09T07:05:48.972Z,19.90
2018-08-09T07:08:19.057Z,17.97
2018-08-09T07:10:49.329Z,19.73
2018-08-09T07:13:19.224Z,19.73
2018-08-09T07:15:49.383Z,14.73
2018-08-09T07:18:20.361Z,16.07
2018-08-09T07:20:50.270Z,15.77
2018-08-09T07:23:20.332Z,13.70
2018-08-09T07:25:49.991Z,14.00
2018-08-09T07:28:20.017Z,17.53
2018-08-09T07:30:51.276Z,14.63
2018-08-09T07:33:21.689Z,14.73
2018-08-09T07:35:51.728Z,20.50
2018-08-09T07:38:21.751Z,15.07
2018-08-09T07:40:51.587Z,20.83
2018-08-09T07:43:21.541Z,15.10
2018-08-09T07:45:52.059Z,14.23
2018-08-09T07:48:21.674Z,16.00
2018-08-09T07:50:51.931Z,15.23
2018-08-09T07:53:21.679Z,18.50
2018-08-09T07:55:51.621Z,13.13
2018-08-09T07:58:22.030Z,20.60
2018-08-09T08:00:52.833Z,13.97
2018-08-09T08:03:23.006Z,14.13
2018-08-09T08:05:52.774Z,17.50
2018-08-09T08:08:22.625Z,18.77
2018-08-09T08:10:52.848Z,15.87
2018-08-09T08:13:22.840Z,12.13
2018-08-09T08:15:52.508Z,13.60
2018-08-09T08:18:22.049Z,17.37
2018-08-09T08:20:53.710Z,19.83
2018-08-09T08:23:23.538Z,15.33
2018-08-09T08:25:53.748Z,14.70
2018-08-09T08:28:23.904Z,15.03
2018-08-09T08:30:54.528Z,15.97
2018-08-09T08:33:24.978Z,10.97
2018-08-09T08:35:54.790Z,12.17
2018-08-09T08:38:25.151Z,10.90
2018-08-09T08:40:55.232Z,11.27
2018-08-09T08:43:25.556Z,11.23
2018-08-09T08:45:56.602Z,10.43
2018-08-09T08:48:26.866Z,12.07
2018-08-09T08:50:56.909Z,12.07
2018-08-09T08:53:26.790Z,12.70
2018-08-09T08:55:56.622Z,11.93
2018-08-09T08:58:26.401Z,11.20
2018-08-09T09:00:56.506Z,10.17
2018-08-09T09:03:26.377Z,13.67
2018-08-09T09:05:56.385Z,9.50
2018-08-09T09:08:26.331Z,11.80
2018-08-09T09:10:58.180Z,11.83
2018-08-09T09:13:28.343Z,10.57
2018-08-09T09:15:58.217Z,9.37
2018-08-09T09:18:28.686Z,12.20
2018-08-09T09:20:58.691Z,9.57
2018-08-09T09:23:28.876Z,10.37
2018-08-09T09:25:58.871Z,12.33
2018-08-09T09:28:28.967Z,11.37
2018-08-09T09:30:58.902Z,14.30
2018-08-09T09:33:28.976Z,10.60
2018-08-09T09:35:59.360Z,13.73
2018-08-09T09:38:29.970Z,10.23
2018-08-09T09:40:59.894Z,10.20
2018-08-09T09:43:30.049Z,11.47
2018-08-09T09:45:59.821Z,9.27
2018-08-09T09:48:29.536Z,14.53
2018-08-09T09:50:59.473Z,9.63
2018-08-09T09:53:29.618Z,11.33
2018-08-09T09:55:59.141Z,10.47
2018-08-09T09:58:28.928Z,12.07
2018-08-09T10:01:04.045Z,10.80
2018-08-09T10:03:34.145Z,8.63
2018-08-09T10:06:04.039Z,9.20
2018-08-09T10:08:33.861Z,9.03
2018-08-09T10:11:03.804Z,9.17
2018-08-09T10:13:34.132Z,11.57
2018-08-09T10:16:04.029Z,9.07
2018-08-09T10:18:33.992Z,8.43
2018-08-09T10:21:03.968Z,11.73
2018-08-09T10:23:33.987Z,15.27
2018-08-09T10:26:04.060Z,11.33
2018-08-09T10:28:33.881Z,9.63
2018-08-09T10:31:04.074Z,12.80
2018-08-09T10:33:34.079Z,9.17
2018-08-09T10:36:04.622Z,10.73
2018-08-09T10:38:34.555Z,9.23
2018-08-09T10:41:04.236Z,8.30
2018-08-09T10:43:33.873Z,8.03
2018-08-09T10:46:03.985Z,12.87
2018-08-09T10:48:34.009Z,9.73
2018-08-09T10:51:04.028Z,11.83
2018-08-09T10:53:33.783Z,11.27
2018-08-09T10:56:03.510Z,11.33
2018-08-09T10:58:33.813Z,9.20
2018-08-09T11:01:04.005Z,10.47
2018-08-09T11:03:34.083Z,8.13
2018-08-09T11:06:04.015Z,9.53
2018-08-09T11:08:33.989Z,8.23
2018-08-09T11:11:08.990Z,14.73
2018-08-09T11:13:38.767Z,8.30
2018-08-09T11:16:09.929Z,9.17
2018-08-09T11:18:39.793Z,11.23
2018-08-09T11:21:09.257Z,7.83
2018-08-09T11:23:39.016Z,9.87
2018-08-09T11:26:08.954Z,9.13
2018-08-09T11:28:38.952Z,10.87
2018-08-09T11:31:08.852Z,8.20
2018-08-09T11:33:39.076Z,9.37
2018-08-09T11:36:09.135Z,9.33
2018-08-09T11:38:39.197Z,8.27
2018-08-09T11:41:09.073Z,10.30
2018-08-09T11:43:38.995Z,13.53
2018-08-09T11:46:08.957Z,11.50
2018-08-09T11:48:39.347Z,10.93
2018-08-09T11:51:09.514Z,9.40
2018-08-09T11:53:39.299Z,17.20
2018-08-09T11:56:10.135Z,8.73
2018-08-09T11:58:40.461Z,11.03
2018-08-09T12:01:10.225Z,8.00
2018-08-09T12:03:39.977Z,16.70
2018-08-09T12:06:09.531Z,11.20
2018-08-09T12:08:39.775Z,10.33
2018-08-09T12:11:09.381Z,8.23
2018-08-09T12:13:39.572Z,11.90
2018-08-09T12:16:09.477Z,11.90
2018-08-09T12:18:39.667Z,10.17
2018-08-09T12:21:09.406Z,13.10
2018-08-09T12:23:39.031Z,11.33
2018-08-09T12:26:08.931Z,8.53
2018-08-09T12:28:39.099Z,9.53
2018-08-09T12:31:09.193Z,9.10
2018-08-09T12:33:38.939Z,8.40
2018-08-09T12:36:09.081Z,14.30
2018-08-09T12:38:38.981Z,14.75
2018-08-09T12:41:09.099Z,11.20
2018-08-09T12:43:38.895Z,7.90
2018-08-09T12:46:08.787Z,9.05
2018-08-09T12:48:38.911Z,11.93
2018-08-09T12:51:09.144Z,10.27
2018-08-09T12:53:39.585Z,11.20
2018-08-09T12:56:09.633Z,12.45
2018-08-09T12:58:39.881Z,9.20
2018-08-09T13:01:14.069Z,8.30
2018-08-09T13:03:43.949Z,10.20
2018-08-09T13:06:14.977Z,12.00
2018-08-09T13:08:51.825Z,10.23
2018-08-09T13:11:23.498Z,13.43
2018-08-09T13:13:54.415Z,11.53
2018-08-09T13:16:25.425Z,13.65
2018-08-09T13:18:55.633Z,9.53
2018-08-09T13:21:26.026Z,13.00
2018-08-09T13:23:56.521Z,10.18
2018-08-09T13:26:27.349Z,11.97
2018-08-09T13:28:57.841Z,10.72
2018-08-09T13:31:27.849Z,11.33
2018-08-09T13:33:57.852Z,10.43
2018-08-09T13:36:28.611Z,13.72
2018-08-09T13:38:59.151Z,12.28
2018-08-09T13:41:33.736Z,12.20
2018-08-09T13:44:08.356Z,10.13
2018-08-09T13:46:39.934Z,13.32
2018-08-09T13:49:11.544Z,9.83
2018-08-09T13:51:43.549Z,13.22
2018-08-09T13:54:14.100Z,13.72
2018-08-09T13:56:44.173Z,12.15
2018-08-09T13:59:13.931Z,10.95
2018-08-09T14:01:44.161Z,10.63
2018-08-09T14:04:14.038Z,12.23
2018-08-09T14:06:43.892Z,13.13
2018-08-09T14:09:15.011Z,17.30
2018-08-09T14:11:44.628Z,11.12
2018-08-09T14:14:14.745Z,9.45
2018-08-09T14:16:45.174Z,11.65
2018-08-09T14:19:14.960Z,16.10
2018-08-09T14:21:44.737Z,8.28
2018-08-09T14:24:14.769Z,9.75
2018-08-09T14:26:44.384Z,9.25
2018-08-09T14:29:14.554Z,14.38
2018-08-09T14:31:44.392Z,10.68
2018-08-09T14:34:15.274Z,14.47
2018-08-09T14:36:44.997Z,12.73
2018-08-09T14:39:14.702Z,15.53
2018-08-09T14:41:44.393Z,20.80
2018-08-09T14:44:14.119Z,11.65
2018-08-09T14:46:43.858Z,15.70
2018-08-09T14:49:13.452Z,13.43
2018-08-09T14:51:43.688Z,12.75
2018-08-09T14:54:13.566Z,11.28
2018-08-09T14:56:43.585Z,13.25
2018-08-09T14:59:13.451Z,11.57
2018-08-09T15:01:43.836Z,11.75
2018-08-09T15:04:13.892Z,13.75
2018-08-09T15:06:44.120Z,12.15
2018-08-09T15:09:14.028Z,14.83
2018-08-09T15:11:44.007Z,13.90
2018-08-09T15:14:14.243Z,9.35
2018-08-09T15:16:44.377Z,15.90
2018-08-09T15:19:14.180Z,8.70
2018-08-09T15:21:44.037Z,12.98
2018-08-09T15:24:13.930Z,10.05
2018-08-09T15:26:43.885Z,13.83
2018-08-09T15:29:13.677Z,14.55
2018-08-09T15:31:43.288Z,9.53
2018-08-09T15:34:12.677Z,11.68
2018-08-09T15:36:42.240Z,17.50
2018-08-09T15:39:13.960Z,49.85
2018-08-09T15:41:43.840Z,21.68
2018-08-09T15:44:14.195Z,15.63
2018-08-09T15:46:44.294Z,21.27
2018-08-09T15:49:15.194Z,18.40
2018-08-09T15:51:46.481Z,13.13
2018-08-09T15:54:17.413Z,15.33
2018-08-09T15:56:48.029Z,15.73
2018-08-09T15:59:19.063Z,14.33
2018-08-09T16:01:49.673Z,13.73
2018-08-09T16:04:25.037Z,9.97
2018-08-09T16:06:57.071Z,10.50
2018-08-09T16:09:27.942Z,14.23
2018-08-09T16:11:58.054Z,16.50
2018-08-09T16:14:28.403Z,14.20
2018-08-09T16:16:59.051Z,12.30
2018-08-09T16:19:29.429Z,14.80
2018-08-09T16:22:02.876Z,13.50
2018-08-09T16:24:35.576Z,8.67
2018-08-09T16:27:06.705Z,7.87
2018-08-09T16:29:37.271Z,7.53
2018-08-09T16:32:06.744Z,7.23
2018-08-09T16:34:36.411Z,7.07
2018-08-09T16:37:07.237Z,9.10
2018-08-09T16:39:37.218Z,11.40
2018-08-09T16:42:07.347Z,7.57
2018-08-09T16:44:36.939Z,9.07
2018-08-09T16:47:06.945Z,10.03
2018-08-09T16:49:37.328Z,9.50
2018-08-09T16:52:09.910Z,8.23
2018-08-09T16:54:43.792Z,8.77
2018-08-09T16:57:16.214Z,10.07
2018-08-09T16:59:47.581Z,7.90
2018-08-09T17:02:18.653Z,10.50
2018-08-09T17:04:49.529Z,9.80
2018-08-09T17:07:26.332Z,7.53
2018-08-09T17:10:00.827Z,6.97
2018-08-09T17:12:36.089Z,8.17
2018-08-09T17:15:13.087Z,9.23
2018-08-09T17:17:47.146Z,6.80
2018-08-09T17:20:22.167Z,9.33
2018-08-09T17:22:52.449Z,10.53
2018-08-09T17:25:22.328Z,7.57
2018-08-09T17:27:52.730Z,7.07
2018-08-09T17:30:24.747Z,9.77
2018-08-09T17:32:55.541Z,8.93
2018-08-09T17:35:25.731Z,9.67
2018-08-09T17:37:56.768Z,8.67
2018-08-09T17:40:29.783Z,10.83
2018-08-09T17:43:00.391Z,9.73
2018-08-09T17:45:34.975Z,11.33
2018-08-09T17:48:06.858Z,6.77
2018-08-09T17:50:37.477Z,12.63
2018-08-09T17:53:09.659Z,8.90
2018-08-09T17:55:40.091Z,7.77
2018-08-09T17:58:10.476Z,9.53
2018-08-09T18:00:40.372Z,9.63
2018-08-09T18:03:10.782Z,6.87
2018-08-09T18:05:41.744Z,10.03
2018-08-09T18:08:12.632Z,8.20
2018-08-09T18:10:43.731Z,8.87
2018-08-09T18:13:18.108Z,8.07
2018-08-09T18:15:49.459Z,5.53
2018-08-09T18:18:20.950Z,7.40
2018-08-09T18:20:51.718Z,6.33
2018-08-09T18:23:21.726Z,5.30
2018-08-09T18:25:52.253Z,8.20
2018-08-09T18:28:22.471Z,8.23
2018-08-09T18:30:52.501Z,6.47
2018-08-09T18:33:22.274Z,6.80
2018-08-09T18:35:52.089Z,10.37
2018-08-09T18:38:22.147Z,7.60
2018-08-09T18:40:51.587Z,5.63
2018-08-09T18:43:21.449Z,9.50
2018-08-09T18:45:51.163Z,10.57
2018-08-09T18:48:21.010Z,10.30
2018-08-09T18:50:50.964Z,6.73
2018-08-09T18:53:20.360Z,7.40
2018-08-09T18:55:49.723Z,5.20
2018-08-09T18:58:19.053Z,5.33
2018-08-09T19:00:49.125Z,4.40
2018-08-09T19:03:18.523Z,3.97
2018-08-09T19:05:47.681Z,4.80
2018-08-09T19:08:16.994Z,6.60
2018-08-09T19:10:46.081Z,5.93
2018-08-09T19:13:15.350Z,4.63
2018-08-09T19:15:44.661Z,5.57
2018-08-09T19:18:13.942Z,5.80
2018-08-09T19:20:43.103Z,5.30
2018-08-09T19:23:12.415Z,6.03
2018-08-09T19:25:41.804Z,5.03
2018-08-09T19:28:11.412Z,3.27
2018-08-09T19:30:40.670Z,3.83
2018-08-09T19:33:10.040Z,4.53
2018-08-09T19:35:39.337Z,3.63
2018-08-09T19:38:08.856Z,4.00
2018-08-09T19:40:38.291Z,4.17
2018-08-09T19:43:07.675Z,3.13
2018-08-09T19:45:37.075Z,5.90
2018-08-09T19:48:06.820Z,3.70
2018-08-09T19:50:36.293Z,4.63
2018-08-09T19:53:06.070Z,3.20
2018-08-09T19:55:35.849Z,3.83
2018-08-09T19:58:06.039Z,4.23
2018-08-09T20:00:36.007Z,4.97
2018-08-09T20:03:05.694Z,2.97
2018-08-09T20:05:35.313Z,3.50
2018-08-09T20:08:05.155Z,5.70
2018-08-09T20:10:35.761Z,3.57
2018-08-09T20:13:05.804Z,5.10
2018-08-09T20:15:36.158Z,5.03
2018-08-09T20:18:05.894Z,6.27
2018-08-09T20:20:36.173Z,4.20
2018-08-09T20:23:05.784Z,3.37
2018-08-09T20:25:35.427Z,5.60
2018-08-09T20:28:05.452Z,5.73
2018-08-09T20:30:35.312Z,5.90
2018-08-09T20:33:05.906Z,3.20
2018-08-09T20:35:36.333Z,4.87
2018-08-09T20:38:06.228Z,4.20
2018-08-09T20:40:35.945Z,8.57
2018-08-09T20:43:05.948Z,4.70
2018-08-09T20:45:35.366Z,3.87
2018-08-09T20:48:05.446Z,5.20
2018-08-09T20:50:35.218Z,5.70
2018-08-09T20:53:05.171Z,4.47
2018-08-09T20:55:34.744Z,4.27
2018-08-09T20:58:04.189Z,5.40
2018-08-09T21:00:35.495Z,5.67
2018-08-09T21:03:04.874Z,5.03
2018-08-09T21:05:35.887Z,5.47
2018-08-09T21:08:05.797Z,5.37
2018-08-09T21:10:35.241Z,5.33
2018-08-09T21:13:04.647Z,3.93
2018-08-09T21:15:35.177Z,4.63
2018-08-09T21:18:04.601Z,4.20
2018-08-09T21:20:33.875Z,4.17
2018-08-09T21:23:04.032Z,4.33
2018-08-09T21:25:34.321Z,4.73
2018-08-09T21:28:04.260Z,4.87
2018-08-09T21:30:33.855Z,5.73
2018-08-09T21:33:03.257Z,4.70
2018-08-09T21:35:32.735Z,6.33
2018-08-09T21:38:02.329Z,5.57
2018-08-09T21:40:31.627Z,8.30
2018-08-09T21:43:01.013Z,5.83
2018-08-09T21:45:30.402Z,10.30
2018-08-09T21:47:59.808Z,4.90
2018-08-09T21:50:29.485Z,6.43
2018-08-09T21:52:58.779Z,5.00
2018-08-09T21:55:28.328Z,5.93
2018-08-09T21:57:57.739Z,5.20
2018-08-09T22:01:00.218Z,3.90
2018-08-09T22:03:32.021Z,4.67
2018-08-09T22:06:06.707Z,4.57
2018-08-09T22:08:41.485Z,9.03
2018-08-09T22:11:17.490Z,8.60
2018-08-09T22:13:52.043Z,4.60
2018-08-09T22:16:26.617Z,4.07
2018-08-09T22:19:01.155Z,5.20
2018-08-09T22:21:36.217Z,5.73
2018-08-09T22:24:05.739Z,4.13
2018-08-09T22:26:35.047Z,3.60
2018-08-09T22:29:04.781Z,3.40
2018-08-09T22:31:34.145Z,3.33
2018-08-09T22:34:04.178Z,4.30
2018-08-09T22:36:33.664Z,2.67
2018-08-09T22:39:03.774Z,3.70
2018-08-09T22:41:33.641Z,4.90
2018-08-09T22:44:02.973Z,5.00
2018-08-09T22:46:32.699Z,3.27
2018-08-09T22:49:02.119Z,5.33
2018-08-09T22:51:31.687Z,3.37
2018-08-09T22:54:01.157Z,3.90
2018-08-09T22:56:30.469Z,4.73
2018-08-09T22:59:00.235Z,3.83
2018-08-09T23:01:29.627Z,5.40
2018-08-09T23:03:58.939Z,3.70
2018-08-09T23:06:30.767Z,4.27
2018-08-09T23:08:59.945Z,2.90
2018-08-09T23:11:29.376Z,3.13
2018-08-09T23:13:58.643Z,2.73
2018-08-09T23:16:28.102Z,4.27
2018-08-09T23:18:57.541Z,2.77
2018-08-09T23:21:26.874Z,3.17
2018-08-09T23:23:56.523Z,2.70
2018-08-09T23:26:26.034Z,2.97
2018-08-09T23:28:55.570Z,3.80
2018-08-09T23:31:25.052Z,7.00
2018-08-09T23:33:54.841Z,7.93
2018-08-09T23:36:24.357Z,3.67
2018-08-09T23:38:53.816Z,4.13
2018-08-09T23:41:23.202Z,2.80
2018-08-09T23:43:52.613Z,3.20
2018-08-09T23:46:21.978Z,3.67
2018-08-09T23:48:51.954Z,4.83
2018-08-09T23:51:21.323Z,4.77
2018-08-09T23:53:50.805Z,2.80
2018-08-09T23:56:20.735Z,3.33
2018-08-09T23:58:50.275Z,2.43
